Time;durP1;ratioP1;P1;durP2;ratioP2;P2;SDS_P1;SDS_P2;PMS_P1;PMS_P2;Temp;Humidity;BMP_temperature;BMP_pressure;BME280_temperature;BME280_humidity;BME280_pressure;Samples;Min_cycle;Max_cycle;Signal;HPM_P1;HPM_P2
2021/11/01 00:00:49;;;;;;;;;;;;;;;15.88;54.89;99815.47;4146217;28;19925;-53
2021/11/01 00:02:51;;;;;;;;;;;;;;;15.89;55.11;99805.72;4146099;28;20362;-55
2021/11/01 00:04:53;;;;;;;;;;;;;;;15.88;54.67;99807.53;4146139;28;20321;-54
2021/11/01 00:06:55;;;;;;;;;;;;;;;15.88;54.91;99806.66;4145957;28;19928;-52
2021/11/01 00:08:57;;;;;;;;;;;;;;;15.88;54.78;99804.00;4146101;28;19976;-50
2021/11/01 00:10:59;;;;;;;;;;;;;;;15.87;54.68;99792.56;4146226;28;20448;-54
2021/11/01 00:13:01;;;;;;;;;;;;;;;15.87;54.87;99805.81;4154105;28;19925;-55
2021/11/01 00:15:04;;;;;;;;;;;;;;;15.86;54.78;99806.78;4146288;28;19925;-54
2021/11/01 00:17:05;;;;;;;;;;;;;;;15.87;54.97;99802.31;4145810;28;19921;-51
2021/11/01 00:19:07;;;;;;;;;;;;;;;15.85;54.74;99791.81;4146100;28;20238;-51
2021/11/01 00:21:09;;;;;;;;;;;;;;;15.85;54.96;99794.47;4151030;28;20381;-50
2021/11/01 00:23:11;;;;;;;;;;;;;;;15.85;54.62;99796.28;4145566;28;19928;-54
2021/11/01 00:25:13;;;;;;;;;;;;;;;15.85;54.92;99807.72;4145890;28;20007;-54
2021/11/01 00:27:15;;;;;;;;;;;;;;;15.85;54.87;99797.13;4146055;28;19921;-50
2021/11/01 00:29:17;;;;;;;;;;;;;;;15.84;54.83;99799.91;4145970;28;19984;-53
2021/11/01 00:31:19;;;;;;;;;;;;;;;15.84;54.86;99798.06;4146087;28;20007;-54
2021/11/01 00:33:21;;;;;;;;;;;;;;;15.84;54.96;99797.25;4146071;28;19925;-51
2021/11/01 00:35:23;;;;;;;;;;;;;;;15.83;54.81;99798.19;4145943;28;19933;-54
2021/11/01 00:37:26;;;;;;;;;;;;;;;15.83;54.75;99782.28;4145587;28;19921;-54
2021/11/01 00:39:28;;;;;;;;;;;;;;;15.82;54.83;99784.06;4136822;28;19922;-54
2021/11/01 00:41:30;;;;;;;;;;;;;;;15.81;54.84;99782.38;4149102;28;19952;-51
2021/11/01 00:43:32;;;;;;;;;;;;;;;15.80;54.68;99778.88;4148737;28;19966;-53
2021/11/01 00:45:35;;;;;;;;;;;;;;;15.80;55.12;99778.03;4148891;28;20015;-52
2021/11/01 00:47:37;;;;;;;;;;;;;;;15.80;54.83;99772.72;4148692;28;19969;-53
2021/11/01 00:49:39;;;;;;;;;;;;;;;15.79;54.98;99771.88;4148785;28;19921;-53
2021/11/01 00:51:43;;;;;;;;;;;;;;;15.79;55.06;99768.38;4149092;28;19921;-53
2021/11/01 00:53:48;;;;;;;;;;;;;;;15.78;54.85;99761.38;4148792;28;20343;-53
2021/11/01 00:55:51;;;;;;;;;;;;;;;15.78;54.83;99753.44;4149141;28;19922;-54
2021/11/01 00:57:53;;;;;;;;;;;;;;;15.78;54.87;99745.47;4148848;28;19925;-50
2021/11/01 00:59:57;;;;;;;;;;;;;;;15.78;54.90;99756.06;4148699;28;19921;-53
2021/11/01 01:01:59;;;;;;;;;;;;;;;15.77;54.91;99764.97;4149017;28;19921;-52
2021/11/01 01:04:02;;;;;;;;;;;;;;;15.76;55.04;99750.91;4147368;28;20360;-53
2021/11/01 01:06:04;;;;;;;;;;;;;;;15.77;55.08;99738.47;4148673;28;19925;-49
2021/11/01 01:08:07;;;;;;;;;;;;;;;15.75;54.65;99741.25;4148320;28;20058;-53
2021/11/01 01:10:09;;;;;;;;;;;;;;;15.76;54.78;99750.03;4148828;28;20011;-52
2021/11/01 01:12:11;;;;;;;;;;;;;;;15.75;55.01;99753.66;4151248;28;20533;-54
2021/11/01 01:14:14;;;;;;;;;;;;;;;15.75;54.64;99762.44;4153778;28;19969;-50
2021/11/01 01:18:24;;;;;;;;;;;;;;;15.76;54.85;99760.63;4148352;28;20401;-52
2021/11/01 01:20:27;;;;;;;;;;;;;;;15.75;54.99;99753.66;4152000;28;19921;-52
2021/11/01 01:22:29;;;;;;;;;;;;;;;15.74;54.50;99747.50;4148448;28;19921;-53
2021/11/01 01:24:31;;;;;;;;;;;;;;;15.73;54.95;99735.19;4148119;28;19944;-53
2021/11/01 01:26:33;;;;;;;;;;;;;;;15.72;54.70;99733.50;4148534;28;19925;-52
2021/11/01 01:28:35;;;;;;;;;;;;;;;15.73;54.66;99747.63;4148307;28;20412;-53
2021/11/01 01:30:37;;;;;;;;;;;;;;;15.73;54.94;99726.41;4148264;28;19922;-52
2021/11/01 01:32:39;;;;;;;;;;;;;;;15.72;54.89;99736.16;4148531;28;20404;-51
2021/11/01 01:34:41;;;;;;;;;;;;;;;15.72;54.96;99733.50;4148082;28;20356;-53
2021/11/01 01:36:45;;;;;;;;;;;;;;;15.71;54.93;99742.44;4148356;28;19928;-52
2021/11/01 01:38:47;;;;;;;;;;;;;;;15.71;54.68;99729.19;4148129;28;19926;-53
2021/11/01 01:40:49;;;;;;;;;;;;;;;15.71;54.65;99737.13;4148018;28;20452;-53
2021/11/01 01:42:51;;;;;;;;;;;;;;;15.71;54.98;99745.09;4132190;28;19980;-52
2021/11/01 01:44:53;;;;;;;;;;;;;;;15.71;54.60;99728.31;4139298;28;19925;-52
2021/11/01 01:46:56;;;;;;;;;;;;;;;15.69;54.59;99739.03;4147995;28;19922;-53
2021/11/01 01:48:58;;;;;;;;;;;;;;;15.69;54.86;99731.09;4148159;28;19921;-52
2021/11/01 01:50:59;;;;;;;;;;;;;;;15.70;54.42;99729.28;4147418;28;20337;-51
2021/11/01 01:53:01;;;;;;;;;;;;;;;15.69;54.68;99717.84;4147887;28;19921;-51
2021/11/01 01:55:04;;;;;;;;;;;;;;;15.68;54.60;99720.59;4147671;28;19929;-52
2021/11/01 01:57:07;;;;;;;;;;;;;;;15.69;54.99;99722.28;4147957;28;20389;-52
2021/11/01 01:59:11;;;;;;;;;;;;;;;15.67;54.92;99722.41;4147898;28;19921;-50
2021/11/01 02:01:17;;;;;;;;;;;;;;;15.67;54.78;99725.03;4147884;28;19922;-52
2021/11/01 02:03:19;;;;;;;;;;;;;;;15.67;54.52;99716.25;4147946;28;19921;-52
2021/11/01 02:05:21;;;;;;;;;;;;;;;15.65;54.55;99733.13;4147660;28;19921;-51
2021/11/01 02:07:53;;;;;;;;;;;;;;;15.65;54.51;99719.03;4147758;28;20375;-53
2021/11/01 02:10:01;;;;;;;;;;;;;;;15.64;54.81;99715.53;4147037;28;19932;-50
2021/11/01 02:12:05;;;;;;;;;;;;;;;15.64;55.03;99715.53;4143746;28;20446;-52
2021/11/01 02:14:10;;;;;;;;;;;;;;;15.64;54.81;99712.03;4147761;28;19921;-52
2021/11/01 02:16:13;;;;;;;;;;;;;;;15.64;54.39;99707.56;4147530;28;19921;-54
2021/11/01 02:18:17;;;;;;;;;;;;;;;15.63;54.83;99718.28;4147728;28;19948;-52
2021/11/01 02:20:21;;;;;;;;;;;;;;;15.62;54.61;99735.97;4150194;28;19967;-50
2021/11/01 02:22:23;;;;;;;;;;;;;;;15.63;54.66;99720.94;4147288;28;19925;-51
2021/11/01 02:24:33;;;;;;;;;;;;;;;15.63;54.75;99720.94;4147604;28;19921;-52
2021/11/01 02:26:36;;;;;;;;;;;;;;;15.62;54.85;99732.50;4147318;28;19971;-49
2021/11/01 02:28:38;;;;;;;;;;;;;;;15.62;54.60;99727.19;4147558;28;19932;-48
2021/11/01 02:30:41;;;;;;;;;;;;;;;15.62;54.50;99735.16;4162377;28;20336;-48
2021/11/01 02:32:43;;;;;;;;;;;;;;;15.62;54.61;99735.16;4147218;28;20284;-53
2021/11/01 02:34:45;;;;;;;;;;;;;;;15.61;54.49;99734.31;4147528;28;19983;-52
2021/11/01 02:36:48;;;;;;;;;;;;;;;15.61;54.52;99729.00;4147106;28;20309;-54
2021/11/01 02:38:50;;;;;;;;;;;;;;;15.61;54.63;99736.09;4147180;28;20369;-52
2021/11/01 02:40:53;;;;;;;;;;;;;;;15.60;54.44;99743.22;4147228;28;19928;-53
2021/11/01 02:42:56;;;;;;;;;;;;;;;15.61;54.54;99736.09;4146949;28;19929;-50
2021/11/01 02:44:59;;;;;;;;;;;;;;;15.60;54.65;99732.63;4147271;28;20306;-54
2021/11/01 02:47:01;;;;;;;;;;;;;;;15.60;54.68;99727.31;4146704;28;19945;-53
2021/11/01 02:49:03;;;;;;;;;;;;;;;15.60;54.55;99734.41;4147061;28;19922;-53
2021/11/01 02:51:05;;;;;;;;;;;;;;;15.59;54.68;99732.69;4147483;28;19926;-51
2021/11/01 02:53:07;;;;;;;;;;;;;;;15.59;54.40;99732.69;4146897;28;19921;-50
2021/11/01 02:55:11;;;;;;;;;;;;;;;15.58;54.83;99728.38;4147121;28;19921;-49
2021/11/01 02:57:13;;;;;;;;;;;;;;;15.57;54.84;99730.16;4146650;28;19936;-50
2021/11/01 02:59:15;;;;;;;;;;;;;;;15.57;54.68;99718.75;4146742;28;19929;-51
2021/11/01 03:01:18;;;;;;;;;;;;;;;15.57;54.75;99721.38;4147091;28;20444;-51
2021/11/01 03:03:20;;;;;;;;;;;;;;;15.56;54.58;99709.94;4145699;28;19922;-52
2021/11/01 03:05:24;;;;;;;;;;;;;;;15.57;54.65;99713.44;4146917;28;19921;-51
2021/11/01 03:07:26;;;;;;;;;;;;;;;15.56;54.54;99725.81;4146461;28;20455;-52
2021/11/01 03:09:29;;;;;;;;;;;;;;;15.56;54.62;99719.69;4146767;28;19991;-53
2021/11/01 03:11:31;;;;;;;;;;;;;;;15.55;54.53;99718.81;4146862;28;19949;-49
2021/11/01 03:13:34;;;;;;;;;;;;;;;15.55;54.73;99715.34;4146651;28;19921;-50
2021/11/01 03:15:36;;;;;;;;;;;;;;;15.54;54.47;99708.34;4146807;28;19921;-49
2021/11/01 03:17:40;;;;;;;;;;;;;;;15.53;54.61;99712.81;4146432;28;19928;-50
2021/11/01 03:19:43;;;;;;;;;;;;;;;15.52;54.63;99703.16;4146807;28;20016;-51
2021/11/01 03:21:45;;;;;;;;;;;;;;;15.53;54.43;99712.81;4150693;28;19995;-50
2021/11/01 03:23:48;;;;;;;;;;;;;;;15.53;54.54;99715.47;4161478;28;20319;-52
2021/11/01 03:26:16;;;;;;;;;;;;;;;15.53;54.28;99715.47;4146482;28;19922;-53
2021/11/01 03:28:18;;;;;;;;;;;;;;;15.53;54.21;99717.25;4145025;28;20415;-52
2021/11/01 03:30:21;;;;;;;;;;;;;;;15.52;54.63;99713.75;4146606;28;20325;-52
2021/11/01 03:32:24;;;;;;;;;;;;;;;15.52;54.63;99718.19;4146455;28;20373;-53
2021/11/01 03:34:28;;;;;;;;;;;;;;;15.51;54.33;99717.38;4146466;28;19926;-52
2021/11/01 03:36:32;;;;;;;;;;;;;;;15.51;54.69;99721.84;4146396;28;20020;-53
2021/11/01 03:38:36;;;;;;;;;;;;;;;15.50;54.50;99726.28;4146032;28;19926;-52
2021/11/01 03:40:41;;;;;;;;;;;;;;;15.49;54.38;99721.91;4146571;28;19921;-52
2021/11/01 03:42:44;;;;;;;;;;;;;;;15.47;54.39;99726.50;4161635;28;19921;-51
2021/11/01 03:44:49;;;;;;;;;;;;;;;15.47;54.68;99726.50;4146117;28;20393;-53
2021/11/01 03:46:56;;;;;;;;;;;;;;;15.47;54.28;99726.50;4146228;28;19976;-52
2021/11/01 03:48:58;;;;;;;;;;;;;;;15.47;54.39;99729.16;4146290;28;19922;-49
2021/11/01 03:51:05;;;;;;;;;;;;;;;15.47;54.38;99731.81;4146492;28;20305;-50
2021/11/01 03:53:08;;;;;;;;;;;;;;;15.46;54.58;99730.94;4146234;28;20397;-52
2021/11/01 03:55:11;;;;;;;;;;;;;;;15.47;54.66;99739.75;4144696;28;19921;-48
2021/11/01 03:57:14;;;;;;;;;;;;;;;15.46;54.62;99730.94;4146374;28;19944;-49
2021/11/01 03:59:16;;;;;;;;;;;;;;;15.45;54.42;99734.53;4146006;28;19972;-60
2021/11/01 04:01:18;;;;;;;;;;;;;;;15.44;54.38;99735.53;4146179;28;19922;-50
2021/11/01 04:03:22;;;;;;;;;;;;;;;15.45;54.52;99739.84;4146317;28;19926;-52
2021/11/01 04:05:24;;;;;;;;;;;;;;;15.44;54.29;99745.25;4146002;28;19925;-51
2021/11/01 04:07:27;;;;;;;;;;;;;;;15.43;54.36;99747.06;4146032;28;19921;-52
2021/11/01 04:09:28;;;;;;;;;;;;;;;15.43;54.33;99751.50;4145699;28;19967;-49
2021/11/01 04:11:32;;;;;;;;;;;;;;;15.43;54.38;99754.16;4146194;28;19925;-47
2021/11/01 04:13:34;;;;;;;;;;;;;;;15.42;54.19;99758.63;4154968;28;19928;-51
2021/11/01 04:15:37;;;;;;;;;;;;;;;15.42;54.54;99753.34;4151328;28;19929;-53
2021/11/01 04:17:44;;;;;;;;;;;;;;;15.42;54.25;99755.97;4151452;28;19944;-52
2021/11/01 04:19:55;;;;;;;;;;;;;;;15.41;54.40;99751.63;4152023;28;19932;-54
2021/11/01 04:21:58;;;;;;;;;;;;;;;15.41;54.35;99742.84;4148779;28;19921;-53
2021/11/01 04:24:01;;;;;;;;;;;;;;;15.41;54.59;99745.50;4151525;28;19925;-51
2021/11/01 04:26:03;;;;;;;;;;;;;;;15.41;54.35;99750.81;4151133;28;19921;-53
2021/11/01 04:28:06;;;;;;;;;;;;;;;15.39;54.35;99745.59;4151149;28;19925;-53
2021/11/01 04:30:09;;;;;;;;;;;;;;;15.39;54.21;99742.94;4151041;28;19922;-52
2021/11/01 04:34:34;;;;;;;;;;;;;;;15.38;54.51;99749.19;4151495;28;19991;-52
2021/11/01 04:36:38;;;;;;;;;;;;;;;15.37;54.16;99760.78;4151040;28;19921;-50
2021/11/01 04:39:03;;;;;;;;;;;;;;;15.37;54.45;99749.31;4151168;28;19921;-54
2021/11/01 04:54:54;;;;;;;;;;;;;;;15.23;54.48;99739.72;4135010;28;19930;-52
2021/11/01 04:56:56;;;;;;;;;;;;;;;15.32;54.05;99754.94;4143542;28;19972;-50
2021/11/01 04:58:58;;;;;;;;;;;;;;;15.32;54.27;99757.56;4137994;28;19921;-52
2021/11/01 05:01:01;;;;;;;;;;;;;;;15.32;54.22;99757.56;4138513;28;19921;-49
2021/11/01 05:03:12;;;;;;;;;;;;;;;15.31;54.40;99755.88;4140115;28;19937;-50
2021/11/01 05:05:14;;;;;;;;;;;;;;;15.31;54.17;99759.38;4151307;28;19921;-51
2021/11/01 05:07:17;;;;;;;;;;;;;;;15.31;54.47;99762.03;4142237;28;19982;-53
2021/11/01 05:09:29;;;;;;;;;;;;;;;15.31;54.14;99761.19;4147638;28;20589;-52
2021/11/01 05:11:39;;;;;;;;;;;;;;;15.30;54.38;99748.91;4149510;28;19928;-52
2021/11/01 05:13:41;;;;;;;;;;;;;;;15.30;54.31;99748.91;4158063;28;20293;-50
2021/11/01 05:15:49;;;;;;;;;;;;;;;15.28;54.32;99749.00;4151325;28;20439;-48
2021/11/01 05:17:58;;;;;;;;;;;;;;;15.29;54.38;99749.88;4151033;28;19952;-49
2021/11/01 05:20:06;;;;;;;;;;;;;;;15.29;54.24;99750.69;4153763;28;19929;-53
2021/11/01 05:22:17;;;;;;;;;;;;;;;15.28;54.00;99749.00;4151916;28;20388;-51
2021/11/01 05:24:30;;;;;;;;;;;;;;;15.29;54.37;99755.16;4151086;28;20421;-51
2021/11/01 05:28:58;;;;;;;;;;;;;;;15.28;54.39;99751.66;4143093;28;19972;-48
2021/11/01 05:31:05;;;;;;;;;;;;;;;15.28;54.22;99749.00;4132256;28;19922;-49
2021/11/01 05:35:09;;;;;;;;;;;;;;;15.29;54.00;99757.81;4135674;28;19922;-51
2021/11/01 05:37:11;;;;;;;;;;;;;;;15.28;54.28;99762.25;4137818;28;20613;-51
2021/11/01 05:39:14;;;;;;;;;;;;;;;15.29;54.03;99755.16;4148218;28;19945;-49
2021/11/01 05:41:16;;;;;;;;;;;;;;;15.28;54.10;99758.75;4148477;28;19921;-49
2021/11/01 05:43:18;;;;;;;;;;;;;;;15.28;54.39;99778.13;4147901;28;20408;-50
2021/11/01 05:45:20;;;;;;;;;;;;;;;15.28;54.22;99766.72;4148165;28;19922;-47
2021/11/01 05:47:22;;;;;;;;;;;;;;;15.14;54.36;99744.69;4146628;28;19921;-50
2021/11/01 05:49:24;;;;;;;;;;;;;;;15.27;54.10;99767.66;4148229;28;19928;-49
2021/11/01 05:51:26;;;;;;;;;;;;;;;15.27;54.34;99760.53;4148358;28;20404;-50
2021/11/01 05:53:34;;;;;;;;;;;;;;;15.27;53.98;99762.34;4147900;28;19946;-48
2021/11/01 06:00:17;;;;;;;;;;;;;;;15.26;54.05;99761.53;4147606;28;19921;-51
2021/11/01 06:07:05;;;;;;;;;;;;;;;15.24;54.19;99771.38;4131799;28;19928;-49
2021/11/01 06:09:20;;;;;;;;;;;;;;;15.25;54.04;99777.50;4142266;28;19925;-48
2021/11/01 06:13:31;;;;;;;;;;;;;;;15.24;53.93;99779.31;4156097;28;19921;-47
2021/11/01 06:15:33;;;;;;;;;;;;;;;15.23;54.33;99793.50;4147806;28;19921;-49
2021/11/01 06:17:35;;;;;;;;;;;;;;;15.23;54.26;99779.44;4147898;28;19921;-51
2021/11/01 06:19:37;;;;;;;;;;;;;;;15.22;54.42;99789.16;4147172;28;20060;-51
2021/11/01 06:21:40;;;;;;;;;;;;;;;15.23;54.37;99790.03;4151039;28;19983;-52
2021/11/01 06:23:47;;;;;;;;;;;;;;;15.23;54.27;99774.13;4147418;28;20508;-52
2021/11/01 06:25:51;;;;;;;;;;;;;;;15.23;54.31;99776.78;4147303;28;19921;-52
2021/11/01 06:27:54;;;;;;;;;;;;;;;15.22;54.29;99788.34;4147690;28;19921;-48
2021/11/01 06:32:09;;;;;;;;;;;;;;;15.21;54.24;99791.94;4147304;28;19921;-51
2021/11/01 06:34:38;;;;;;;;;;;;;;;15.20;54.08;99796.41;4147271;28;20257;-51
2021/11/01 06:41:31;;;;;;;;;;;;;;;15.18;54.09;99793.84;4147164;28;19976;-53
2021/11/01 06:57:21;;;;;;;;;;;;;;;15.16;54.24;99797.53;4131299;28;19984;-53
2021/11/01 07:15:54;;;;;;;;;;;;;;;15.13;54.01;99798.59;4146536;28;19926;-54
2021/11/01 07:25:14;;;;;;;;;;;;;;;15.13;54.27;99803.91;4146906;28;20278;-52
2021/11/01 08:25:28;;;;;;;;;;;;;;;15.13;53.95;99864.81;4143286;28;19972;-51
2021/11/01 08:41:06;;;;;;;;;;;;;;;15.17;53.96;99857.50;4136685;28;19921;-54
2021/11/01 08:43:51;;;;;;;;;;;;;;;15.15;54.00;99854.97;4146163;28;19922;-49
2021/11/01 08:48:12;;;;;;;;;;;;;;;15.17;53.91;99861.00;4145683;28;19952;-54
2021/11/01 09:01:55;;;;;;;;;;;;;;;15.19;53.84;99855.63;4137599;28;19921;-53
2021/11/01 09:06:13;;;;;;;;;;;;;;;15.22;53.80;99857.19;4143441;28;20429;-56
2021/11/01 09:21:53;;;;;;;;;;;;;;;15.25;53.62;99843.72;4149350;28;19961;-52
2021/11/01 09:38:15;;;;;;;;;;;;;;;15.26;53.82;99843.66;4140658;28;20332;-55
2021/11/01 09:42:08;;;;;;;;;;;;;;;15.28;53.46;99838.22;4145227;28;19933;-53
2021/11/01 09:44:15;;;;;;;;;;;;;;;15.28;53.84;99841.72;4148187;28;19976;-56
2021/11/01 09:46:17;;;;;;;;;;;;;;;15.29;53.87;99843.41;4148050;28;19925;-54
2021/11/01 09:48:19;;;;;;;;;;;;;;;15.29;53.52;99846.06;4147960;28;20313;-55
2021/11/01 09:50:22;;;;;;;;;;;;;;;15.31;53.53;99841.50;4146839;28;19984;-50
2021/11/01 09:52:25;;;;;;;;;;;;;;;15.32;53.51;99847.66;4144478;28;19952;-53
2021/11/01 09:54:29;;;;;;;;;;;;;;;15.31;53.65;99844.16;4148144;28;19983;-52
2021/11/01 10:01:14;;;;;;;;;;;;;;;15.33;53.48;99834.31;4147840;28;19921;-54
2021/11/01 10:03:17;;;;;;;;;;;;;;;15.33;53.59;99828.16;4147823;28;19988;-55
2021/11/01 10:05:25;;;;;;;;;;;;;;;15.36;53.61;99821.78;4148059;28;19921;-52
2021/11/01 10:09:32;;;;;;;;;;;;;;;15.39;53.58;99827.72;4147985;28;19968;-53
2021/11/01 10:11:36;;;;;;;;;;;;;;;15.40;53.60;99832.06;4147271;28;19921;-54
2021/11/01 10:13:39;;;;;;;;;;;;;;;15.43;53.70;99833.66;4155975;28;19967;-56
2021/11/01 10:18:04;;;;;;;;;;;;;;;15.44;53.30;99833.56;4147379;28;19930;-51
2021/11/01 10:20:08;;;;;;;;;;;;;;;15.45;53.62;99848.47;4138214;28;19921;-55
2021/11/01 10:22:36;;;;;;;;;;;;;;;15.48;53.54;99842.13;4148095;28;19922;-53
2021/11/01 10:24:39;;;;;;;;;;;;;;;15.49;53.34;99834.09;4147674;28;19975;-52
2021/11/01 10:26:45;;;;;;;;;;;;;;;15.52;53.33;99848.06;4147360;28;19926;-52
2021/11/01 10:28:48;;;;;;;;;;;;;;;15.52;53.52;99833.03;4147556;28;19921;-53
2021/11/01 10:30:50;;;;;;;;;;;;;;;15.54;53.44;99849.66;4147664;28;20418;-53
2021/11/01 10:32:52;;;;;;;;;;;;;;;15.52;53.44;99850.69;4147068;28;20448;-53
2021/11/01 10:35:08;;;;;;;;;;;;;;;15.55;53.28;99842.56;4147415;28;19928;-54
2021/11/01 10:37:13;;;;;;;;;;;;;;;15.57;53.16;99844.13;4147386;28;19929;-53
2021/11/01 10:39:16;;;;;;;;;;;;;;;15.56;53.10;99845.09;4147377;28;19937;-53
2021/11/01 10:47:01;;;;;;;;;;;;;;;15.59;53.21;99831.63;4147394;28;19925;-54
2021/11/01 11:12:07;;;;;;;;;;;;;;;15.60;52.41;99804.19;4146737;28;19921;-49
2021/11/01 11:16:59;;;;;;;;;;;;;;;15.60;52.81;99795.34;4147093;28;19975;-50
2021/11/01 11:26:04;;;;;;;;;;;;;;;15.58;52.34;99798.13;4142775;28;19980;-51
2021/11/01 11:28:45;;;;;;;;;;;;;;;15.57;52.59;99793.78;4146667;28;19922;-51
2021/11/01 11:48:35;;;;;;;;;;;;;;;15.57;52.64;99804.38;4146178;28;19921;-53
2021/11/01 11:50:37;;;;;;;;;;;;;;;15.57;52.29;99804.38;4145730;28;19921;-56
2021/11/01 11:52:39;;;;;;;;;;;;;;;15.58;52.34;99795.47;4146252;28;19983;-53
2021/11/01 11:54:49;;;;;;;;;;;;;;;15.59;52.41;99796.31;4145950;28;20381;-54
2021/11/01 11:56:51;;;;;;;;;;;;;;;15.59;52.35;99806.91;4146015;28;19933;-56
2021/11/01 11:58:56;;;;;;;;;;;;;;;15.58;51.94;99795.47;4146160;28;20389;-52
2021/11/01 12:00:58;;;;;;;;;;;;;;;15.59;52.03;99806.91;4145847;28;19921;-52
2021/11/01 12:03:12;;;;;;;;;;;;;;;15.56;52.24;99794.72;4146134;28;19929;-56
2021/11/01 12:05:20;;;;;;;;;;;;;;;15.59;52.14;99797.19;4146013;28;20293;-54
2021/11/01 12:07:23;;;;;;;;;;;;;;;15.58;51.94;99794.66;4146333;28;20392;-56
2021/11/01 12:12:06;;;;;;;;;;;;;;;15.58;52.20;99798.13;4145839;28;19925;-52
2021/11/01 12:14:21;;;;;;;;;;;;;;;15.58;52.19;99787.53;4146127;28;19967;-51
2021/11/01 12:18:48;;;;;;;;;;;;;;;15.57;51.81;99779.69;4146490;28;19925;-56
2021/11/01 12:20:50;;;;;;;;;;;;;;;15.59;51.99;99769.81;4149743;28;19984;-53
2021/11/01 12:23:01;;;;;;;;;;;;;;;15.58;51.88;99765.50;4146317;28;19975;-52
2021/11/01 12:25:04;;;;;;;;;;;;;;;15.58;52.06;99765.50;4146241;28;19975;-56
2021/11/01 12:27:08;;;;;;;;;;;;;;;15.58;51.72;99768.13;4145943;28;19921;-54
2021/11/01 12:29:11;;;;;;;;;;;;;;;15.58;51.97;99768.97;4145687;28;19932;-56
2021/11/01 12:31:13;;;;;;;;;;;;;;;15.59;51.94;99778.63;4145911;28;19921;-57
2021/11/01 12:33:17;;;;;;;;;;;;;;;15.58;52.11;99768.97;4145879;28;20017;-56
2021/11/01 12:35:25;;;;;;;;;;;;;;;15.59;52.05;99773.31;4146986;28;20345;-56
2021/11/01 12:37:33;;;;;;;;;;;;;;;15.59;51.85;99768.03;4148657;28;19921;-54
2021/11/01 12:39:44;;;;;;;;;;;;;;;15.60;52.17;99760.91;4147977;28;19928;-57
2021/11/01 12:47:16;;;;;;;;;;;;;;;15.59;52.17;99748.59;4148911;28;19927;-55
2021/11/01 12:58:36;;;;;;;;;;;;;;;15.60;51.77;99752.94;4145123;28;19921;-53
2021/11/01 13:00:40;;;;;;;;;;;;;;;15.60;51.78;99745.88;4148599;28;19921;-55
2021/11/01 13:02:45;;;;;;;;;;;;;;;15.60;51.73;99740.56;4148521;28;20317;-55
2021/11/01 13:04:51;;;;;;;;;;;;;;;15.59;51.98;99735.34;4148610;28;19922;-53
2021/11/01 13:09:26;;;;;;;;;;;;;;;15.58;52.19;99737.16;4147118;28;20289;-54
2021/11/01 13:11:59;;;;;;;;;;;;;;;15.57;52.02;99739.94;4148649;28;19921;-54
2021/11/01 13:14:26;;;;;;;;;;;;;;;15.57;51.82;99729.34;4148373;28;20504;-55
2021/11/01 13:18:44;;;;;;;;;;;;;;;15.59;52.14;99727.41;4148327;28;19933;-55
2021/11/01 13:20:51;;;;;;;;;;;;;;;15.58;52.15;99721.28;4153087;28;19929;-56
2021/11/01 13:22:57;;;;;;;;;;;;;;;15.55;52.40;99718.00;4148337;28;19925;-57
2021/11/01 13:27:48;;;;;;;;;;;;;;;15.56;52.13;99707.28;4148695;28;19921;-54
2021/11/01 13:34:58;;;;;;;;;;;;;;;15.56;51.99;99717.88;4147951;28;20308;-53
2021/11/01 13:36:52;;;;;;;;;;;;;;;15.56;52.13;99707.28;4148122;28;19925;-53
2021/11/01 13:39:04;;;;;;;;;;;;;;;15.55;52.46;99718.81;4143522;28;20071;-51
2021/11/01 13:41:16;;;;;;;;;;;;;;;15.55;52.42;99710.88;4147944;28;19925;-55
2021/11/01 13:43:24;;;;;;;;;;;;;;;15.56;52.65;99709.09;4148018;28;20381;-55
2021/11/01 13:45:27;;;;;;;;;;;;;;;15.56;52.15;99703.78;4147969;28;20389;-55
2021/11/01 13:47:38;;;;;;;;;;;;;;;15.55;52.51;99704.75;4147281;28;20259;-57
2021/11/01 13:49:44;;;;;;;;;;;;;;;15.55;52.45;99705.56;4147740;28;19926;-55
2021/11/01 13:51:50;;;;;;;;;;;;;;;15.53;52.72;99718.13;4148068;28;19928;-58
2021/11/01 13:56:16;;;;;;;;;;;;;;;15.55;52.66;99741.84;4137647;28;19921;-58
2021/11/01 14:00:41;;;;;;;;;;;;;;;15.54;52.79;99738.38;4146341;28;19983;-55
2021/11/01 14:11:53;;;;;;;;;;;;;;;15.52;52.78;99719.06;4139259;28;20031;-56
2021/11/01 14:26:55;;;;;;;;;;;;;;;15.53;53.17;99725.19;4147139;28;19932;-57
2021/11/01 15:21:05;;;;;;;;;;;;;;;15.36;53.29;99740.53;4151551;28;19921;-57
2021/11/01 15:34:54;;;;;;;;;;;;;;;15.37;53.53;99730.75;4137529;28;20495;-56
2021/11/01 16:19:06;;;;;;;;;;;;;;;15.33;53.84;99744.25;4153741;28;20281;-56
2021/11/01 16:21:08;;;;;;;;;;;;;;;15.34;53.88;99745.91;4149119;28;20291;-55
2021/11/01 16:25:24;;;;;;;;;;;;;;;15.32;53.59;99739.91;4145443;28;20352;-56
2021/11/01 16:27:26;;;;;;;;;;;;;;;15.32;53.60;99745.19;4146156;28;19928;-57
2021/11/01 16:29:44;;;;;;;;;;;;;;;15.32;53.71;99745.19;4145886;28;19925;-53
2021/11/01 16:33:57;;;;;;;;;;;;;;;15.32;53.86;99746.97;4146070;28;19921;-54
2021/11/01 16:36:00;;;;;;;;;;;;;;;15.32;53.86;99744.34;4146025;28;19945;-54
2021/11/01 16:40:06;;;;;;;;;;;;;;;15.31;53.56;99745.28;4145609;28;19921;-55
2021/11/01 16:42:08;;;;;;;;;;;;;;;15.30;53.99;99748.91;4145833;28;19921;-54
2021/11/01 16:46:26;;;;;;;;;;;;;;;15.27;53.76;99752.59;4145866;28;20383;-55
2021/11/01 16:48:28;;;;;;;;;;;;;;;15.27;53.69;99755.25;4146064;28;19922;-52
2021/11/01 16:50:30;;;;;;;;;;;;;;;15.26;53.74;99755.38;4145463;28;20640;-55
2021/11/01 16:52:33;;;;;;;;;;;;;;;15.26;53.83;99761.53;4145706;28;19932;-56
2021/11/01 16:54:36;;;;;;;;;;;;;;;15.25;54.08;99751.88;4144564;28;19921;-54
2021/11/01 16:57:07;;;;;;;;;;;;;;;15.25;53.90;99751.03;4135010;28;19921;-54
2021/11/01 16:59:25;;;;;;;;;;;;;;;15.25;54.18;99764.25;4145792;28;19922;-53
2021/11/01 17:01:28;;;;;;;;;;;;;;;15.25;53.88;99762.47;4145490;28;19921;-55
2021/11/01 17:03:44;;;;;;;;;;;;;;;15.25;53.95;99773.06;4145956;28;20487;-56
2021/11/01 17:08:26;;;;;;;;;;;;;;;15.23;54.21;99767.03;4145497;28;19921;-57
2021/11/01 17:22:16;;;;;;;;;;;;;;;15.22;54.02;99753.91;4143838;28;20021;-55
2021/11/01 17:24:25;;;;;;;;;;;;;;;15.21;54.06;99755.69;4132413;28;19922;-54
2021/11/01 17:36:18;;;;;;;;;;;;;;;15.20;54.04;99766.41;4151988;28;19921;-57
2021/11/01 18:25:05;;;;;;;;;;;;;;;14.95;54.82;99807.84;4144680;28;19921;-53
2021/11/01 18:51:49;;;;;;;;;;;;;;;14.83;55.23;99798.91;4134025;28;19925;-57
2021/11/01 18:54:03;;;;;;;;;;;;;;;14.83;55.33;99804.22;4134470;28;19921;-54
2021/11/01 18:56:06;;;;;;;;;;;;;;;14.81;55.38;99806.09;4137841;28;19929;-56
2021/11/01 18:58:10;;;;;;;;;;;;;;;14.80;55.31;99810.56;4147307;28;19921;-54
2021/11/01 19:00:12;;;;;;;;;;;;;;;14.80;55.44;99807.06;4147078;28;19972;-55
2021/11/01 19:05:33;;;;;;;;;;;;;;;14.78;55.25;99803.69;4147123;28;19922;-56
2021/11/01 19:07:10;;;;;;;;;;;;;;;14.78;55.61;99811.63;4149542;28;19921;-54
2021/11/01 20:05:47;;;;;;;;;;;;;;;14.64;55.85;99794.00;4146746;28;19921;-57
2021/11/01 21:27:06;;;;;;;;;;;;;;;14.51;55.71;99776.31;4148661;28;19925;-54
2021/11/01 21:29:07;;;;;;;;;;;;;;;14.50;55.63;99781.69;4148165;28;20040;-56
2021/11/01 21:31:09;;;;;;;;;;;;;;;14.50;55.94;99781.69;4148515;28;20313;-54
2021/11/01 21:33:16;;;;;;;;;;;;;;;14.50;55.91;99777.25;4148613;28;19967;-57
2021/11/01 21:35:19;;;;;;;;;;;;;;;14.50;55.62;99782.53;4148442;28;19929;-56
2021/11/01 21:37:21;;;;;;;;;;;;;;;14.49;55.77;99780.84;4148524;28;19928;-53
2021/11/01 21:39:23;;;;;;;;;;;;;;;14.50;55.66;99773.75;4148142;28;19921;-54
2021/11/01 21:41:27;;;;;;;;;;;;;;;14.48;56.05;99768.59;4137568;28;19930;-54
2021/11/01 21:43:29;;;;;;;;;;;;;;;14.48;55.69;99768.59;4148401;28;19999;-56
2021/11/01 21:45:30;;;;;;;;;;;;;;;14.48;55.81;99762.44;4148086;28;19922;-57
2021/11/01 21:47:35;;;;;;;;;;;;;;;14.48;55.61;99760.66;4148426;28;20021;-54
2021/11/01 21:49:37;;;;;;;;;;;;;;;14.47;55.76;99756.31;4148558;28;19925;-58
2021/11/01 21:51:40;;;;;;;;;;;;;;;14.48;55.57;99759.78;4148350;28;19930;-54
2021/11/01 21:53:46;;;;;;;;;;;;;;;14.48;55.57;99758.00;4148664;28;20420;-56
2021/11/01 21:55:49;;;;;;;;;;;;;;;14.47;55.67;99747.50;4148201;28;19921;-54
2021/11/01 21:57:59;;;;;;;;;;;;;;;14.47;55.50;99752.78;4148390;28;20266;-56
2021/11/01 22:20:53;;;;;;;;;;;;;;;14.45;55.51;99728.25;4147840;28;20293;-56